Main page
METAR-TAF:

METAR-TAF

Airports :

Zenata – Messali El Hadj Airport

Tlemcen, Algeria

latitude: 35-01N, longitude: 001-28W, elevation: 247 m

Current weather observation

The report was made 36 minutes ago, at 09:00 UTC
Wind 14 kt from the Southwest
Temperature 18°C
Humidity 59%
Pressure 1017 hPa
Visibility 10 km or more
Scattered clouds at a height of 2600 ft

METAR: DAON 060900Z 22014KT 9999 SCT026 18/10 Q1017

Time: 10:36 (09:36 UTC)

Forecast

The report was made 4 hours and 36 minutes ago, at 05:00 UTC
Forecast valid from 06 at 06 UTC to 07 at 06 UTC
Wind 11 kt from the South/Southwest
Visibility 10 km or more
Scattered clouds at a height of 2600 ft
Scattered clouds at a height of 10000 ft
Temporary
from 06 at 06 UTC to 06 at 11 UTC
Wind 18 kt from the West/Southwest
Becoming
from 06 at 13 UTC to 06 at 17 UTC
Wind 12 kt from the Northwest

TAF: DAON 060500Z 0606/0706 21011KT 9999 SCT026 SCT100 TEMPO 0606/0611 24018KT BECMG 0613/0617 32012KT

Weather observations and forecasts of more than 4000 airports (METAR and TAF reports).

The available stations are represented by yellow and red dots on the map.

Hover mouse over dot to see the name of the station.

Then click to see weather observations and forecasts.

To change the map : click on the green buttons with a black cross to zoom in, on the green button with a dash to zoom out, or on the green arrows for adjacent maps.


METAR-TAF: